createdAt,value
2023-05-09T03:58:55.899Z,152.00
2023-05-09T03:59:55.720Z,160.00
2023-05-09T04:00:55.721Z,172.00
2023-05-09T04:01:55.834Z,184.00
2023-05-09T04:02:55.747Z,196.00
2023-05-09T04:03:55.732Z,208.00
2023-05-09T04:04:55.867Z,220.00
2023-05-09T04:05:55.698Z,232.00
2023-05-09T04:06:55.672Z,244.00
2023-05-09T04:07:55.704Z,256.00
2023-05-09T04:08:55.697Z,268.00
2023-05-09T04:09:55.652Z,280.00
2023-05-09T04:10:55.679Z,300.00
2023-05-09T04:11:55.661Z,316.00
2023-05-09T04:12:55.679Z,336.00
2023-05-09T04:13:55.654Z,352.00
2023-05-09T04:14:55.777Z,368.00
2023-05-09T04:15:55.637Z,384.00
2023-05-09T04:16:55.696Z,396.00
2023-05-09T04:17:55.694Z,412.00
2023-05-09T04:18:55.626Z,424.00
2023-05-09T04:19:55.643Z,436.00
2023-05-09T04:20:55.616Z,452.00
2023-05-09T04:21:55.604Z,468.00
2023-05-09T04:22:55.592Z,480.00
2023-05-09T04:23:55.613Z,492.00
2023-05-09T04:24:55.592Z,504.00
2023-05-09T04:25:55.617Z,508.00
2023-05-09T04:26:55.581Z,520.00
2023-05-09T04:27:55.577Z,524.00
2023-05-09T04:28:55.586Z,528.00
2023-05-09T04:29:55.584Z,536.00
2023-05-09T04:30:55.779Z,544.00
2023-05-09T04:31:55.871Z,556.00
2023-05-09T04:32:55.636Z,568.00
2023-05-09T04:33:55.582Z,580.00
2023-05-09T04:34:55.570Z,600.00
2023-05-09T04:35:55.596Z,624.00
2023-05-09T04:36:55.555Z,644.00
2023-05-09T04:37:55.545Z,664.00
2023-05-09T04:38:55.546Z,684.00
2023-05-09T04:39:55.551Z,700.00
2023-05-09T04:40:55.537Z,708.00
2023-05-09T04:41:55.564Z,720.00
2023-05-09T04:42:55.538Z,728.00
2023-05-09T04:43:55.537Z,740.00
2023-05-09T04:44:55.548Z,752.00
2023-05-09T04:45:55.552Z,760.00
2023-05-09T04:46:55.653Z,780.00
2023-05-09T04:47:55.547Z,800.00
2023-05-09T04:48:55.534Z,816.00
2023-05-09T04:49:55.525Z,836.00
2023-05-09T04:50:55.515Z,860.00
2023-05-09T04:51:55.512Z,892.00
2023-05-09T04:52:55.529Z,924.00
2023-05-09T04:53:55.506Z,956.00
2023-05-09T04:54:55.520Z,980.00
2023-05-09T04:55:55.507Z,1008.00
2023-05-09T04:57:03.182Z,1036.00
2023-05-09T04:57:55.483Z,1056.00
2023-05-09T04:58:55.482Z,1076.00
2023-05-09T04:59:55.497Z,1096.00
2023-05-09T05:00:55.482Z,1116.00
2023-05-09T05:01:55.496Z,1140.00
2023-05-09T05:02:55.620Z,1180.00
2023-05-09T05:03:55.497Z,1184.00
2023-05-09T05:05:06.247Z,1196.00
2023-05-09T05:05:55.474Z,1220.00
2023-05-09T05:06:55.458Z,1240.00
2023-05-09T05:07:55.454Z,1292.00
2023-05-09T05:08:55.453Z,1360.00
2023-05-09T05:09:55.448Z,1360.00
2023-05-09T05:10:55.469Z,1580.00
2023-05-09T05:12:01.822Z,1572.00
2023-05-09T05:12:55.473Z,1620.00
2023-05-09T05:13:55.446Z,1660.00
2023-05-09T05:14:55.425Z,1692.00
2023-05-09T05:15:55.457Z,1708.00
2023-05-09T05:16:55.442Z,1764.00
2023-05-09T05:17:55.449Z,1784.00
2023-05-09T05:18:55.556Z,1720.00
2023-05-09T05:19:55.416Z,1688.00
2023-05-09T05:20:55.429Z,1672.00
2023-05-09T05:21:55.412Z,1708.00
2023-05-09T05:22:55.425Z,1708.00
2023-05-09T05:23:55.450Z,1716.00
2023-05-09T05:24:55.447Z,1736.00
2023-05-09T05:25:55.418Z,1752.00
2023-05-09T05:26:55.411Z,1800.00
2023-05-09T05:27:55.409Z,1788.00
2023-05-09T05:28:55.391Z,1844.00
2023-05-09T05:29:55.393Z,1796.00
2023-05-09T05:30:55.426Z,1800.00
2023-05-09T05:31:55.468Z,1812.00
2023-05-09T05:32:55.460Z,1804.00
2023-05-09T05:33:55.418Z,1744.00
2023-05-09T05:34:55.516Z,1732.00
2023-05-09T05:35:55.376Z,1736.00
2023-05-09T05:36:55.380Z,1760.00
2023-05-09T05:37:55.378Z,1792.00
2023-05-09T05:38:55.384Z,1828.00
2023-05-09T05:39:55.359Z,1876.00
2023-05-09T05:40:55.365Z,2052.00
2023-05-09T05:41:55.367Z,2172.00
2023-05-09T05:42:55.360Z,2172.00
2023-05-09T05:43:55.370Z,2232.00
2023-05-09T05:44:55.361Z,2292.00
2023-05-09T05:45:55.395Z,2376.00
2023-05-09T05:46:55.381Z,2508.00
2023-05-09T05:47:55.460Z,2628.00
2023-05-09T05:48:55.354Z,2812.00
2023-05-09T05:49:55.459Z,2892.00
2023-05-09T05:50:55.573Z,2968.00
2023-05-09T05:51:55.824Z,3132.00
2023-05-09T05:52:55.410Z,3224.00
2023-05-09T05:53:55.485Z,3036.00
2023-05-09T05:54:55.437Z,3320.00
2023-05-09T05:55:56.065Z,3224.00
2023-05-09T05:56:55.368Z,3376.00
2023-05-09T05:57:55.315Z,3884.00
2023-05-09T05:58:55.322Z,2288.00
2023-05-09T05:59:55.407Z,3752.00
2023-05-09T06:00:55.697Z,3812.00
2023-05-09T06:01:55.616Z,3692.00
2023-05-09T06:02:55.485Z,3652.00
2023-05-09T06:03:55.405Z,3728.00
2023-05-09T06:04:56.168Z,3768.00
2023-05-09T06:05:55.569Z,3744.00
2023-05-09T06:06:55.423Z,3788.00
2023-05-09T06:07:55.325Z,3844.00
2023-05-09T06:08:55.345Z,3848.00
2023-05-09T06:09:55.311Z,3916.00
2023-05-09T06:10:55.317Z,3940.00
2023-05-09T06:11:55.290Z,3872.00
2023-05-09T06:12:55.332Z,3972.00
2023-05-09T06:13:55.338Z,3948.00
2023-05-09T06:14:55.380Z,3868.00
2023-05-09T06:15:57.699Z,4016.00
2023-05-09T06:16:55.349Z,3968.00
2023-05-09T06:17:55.330Z,4012.00
2023-05-09T06:18:56.283Z,4044.00
2023-05-09T06:19:55.302Z,4108.00
2023-05-09T06:20:55.303Z,4000.00
2023-05-09T06:21:55.289Z,4028.00
2023-05-09T06:22:55.498Z,4124.00
2023-05-09T06:24:05.919Z,4220.00
2023-05-09T06:24:55.323Z,4276.00
2023-05-09T06:25:55.275Z,4220.00
2023-05-09T06:26:55.265Z,4244.00
2023-05-09T06:27:55.361Z,4036.00
2023-05-09T06:28:55.304Z,3804.00
2023-05-09T06:35:32.622Z,3568.00
2023-05-09T06:36:32.663Z,3708.00
2023-05-09T06:37:32.615Z,3684.00
2023-05-09T06:38:32.619Z,3496.00
2023-05-09T06:39:32.574Z,3032.00
2023-05-09T06:40:32.622Z,2908.00
2023-05-09T06:41:32.579Z,3092.00
2023-05-09T06:42:32.575Z,3244.00
2023-05-09T06:43:32.620Z,3352.00
2023-05-09T06:44:32.648Z,3216.00
2023-05-09T06:45:32.669Z,3040.00
2023-05-09T06:46:32.657Z,2920.00
2023-05-09T06:47:32.631Z,3124.00
2023-05-09T06:48:32.596Z,3232.00
2023-05-09T06:49:32.568Z,3588.00
2023-05-09T06:50:32.986Z,3472.00
2023-05-09T06:51:32.566Z,3296.00
2023-05-09T06:52:32.619Z,3412.00
2023-05-09T06:53:32.582Z,3384.00
2023-05-09T06:54:32.687Z,3188.00
2023-05-09T06:55:32.678Z,3028.00
2023-05-09T06:56:32.609Z,2704.00
2023-05-09T06:57:32.552Z,2616.00
2023-05-09T06:58:32.586Z,2556.00
2023-05-09T06:59:32.566Z,2844.00
2023-05-09T07:00:32.565Z,3160.00
2023-05-09T07:01:32.692Z,3224.00
2023-05-09T07:02:32.588Z,3276.00
2023-05-09T07:03:32.551Z,3392.00
2023-05-09T07:04:32.600Z,3556.00
2023-05-09T07:05:32.632Z,3404.00
2023-05-09T07:06:32.558Z,3292.00
2023-05-09T07:07:32.572Z,3228.00
2023-05-09T07:08:32.586Z,3356.00
2023-05-09T07:09:32.603Z,3652.00
2023-05-09T07:10:32.660Z,3552.00
2023-05-09T07:11:32.549Z,3684.00
2023-05-09T07:12:32.557Z,4116.00
2023-05-09T07:13:32.555Z,4116.00
2023-05-09T07:14:32.626Z,4484.00
2023-05-09T07:15:40.358Z,4644.00
2023-05-09T07:16:33.671Z,4780.00
2023-05-09T07:17:32.625Z,4740.00
2023-05-09T07:18:32.538Z,4580.00
2023-05-09T07:19:32.559Z,4084.00
2023-05-09T07:20:32.557Z,4052.00
2023-05-09T07:21:32.554Z,3808.00
2023-05-09T07:22:34.769Z,2904.00
2023-05-09T07:23:32.548Z,3348.00
2023-05-09T07:24:32.584Z,4060.00
2023-05-09T07:25:32.573Z,3272.00
2023-05-09T07:26:32.655Z,3240.00
2023-05-09T07:27:32.543Z,3696.00
2023-05-09T07:28:32.565Z,3936.00
2023-05-09T07:29:32.596Z,4032.00
2023-05-09T07:30:33.279Z,4536.00
2023-05-09T07:31:35.293Z,5088.00
2023-05-09T07:32:33.595Z,4812.00
2023-05-09T07:33:32.570Z,4808.00
2023-05-09T07:34:32.630Z,4816.00
2023-05-09T07:35:32.851Z,4656.00
2023-05-09T07:36:33.617Z,4820.00
2023-05-09T07:37:32.572Z,4992.00
2023-05-09T07:38:32.631Z,5176.00
2023-05-09T07:39:32.580Z,5316.00
2023-05-09T07:40:32.567Z,5216.00
2023-05-09T07:41:32.573Z,5236.00
2023-05-09T07:42:32.719Z,5260.00
2023-05-09T07:43:32.510Z,5316.00
2023-05-09T07:44:32.570Z,5412.00
2023-05-09T07:45:32.737Z,5428.00
2023-05-09T07:46:32.529Z,5412.00
2023-05-09T07:47:32.554Z,4524.00
2023-05-09T07:48:32.533Z,4592.00
2023-05-09T07:49:32.657Z,4512.00
2023-05-09T07:50:32.575Z,4304.00
2023-05-09T07:51:32.581Z,3460.00
2023-05-09T07:52:32.630Z,3724.00
2023-05-09T07:53:32.522Z,3832.00
2023-05-09T07:54:32.577Z,4352.00
2023-05-09T07:55:32.572Z,4656.00
2023-05-09T07:56:32.503Z,5304.00
2023-05-09T07:57:32.579Z,5472.00
2023-05-09T07:58:32.654Z,5540.00
2023-05-09T07:59:32.522Z,5500.00
2023-05-09T08:00:32.518Z,5648.00
2023-05-09T08:01:32.593Z,5680.00
2023-05-09T08:02:32.694Z,5544.00
2023-05-09T08:03:32.583Z,5412.00
2023-05-09T08:04:32.534Z,5504.00
2023-05-09T08:05:32.579Z,5364.00
2023-05-09T08:06:32.527Z,5612.00
2023-05-09T08:07:32.538Z,5680.00
2023-05-09T08:08:32.509Z,5764.00
2023-05-09T08:09:32.525Z,5732.00
2023-05-09T08:10:32.545Z,5588.00
2023-05-09T08:11:32.534Z,5592.00
2023-05-09T08:12:32.536Z,5612.00
2023-05-09T08:13:32.551Z,5668.00
2023-05-09T08:14:32.679Z,5784.00
2023-05-09T08:15:32.565Z,5928.00
2023-05-09T08:16:32.693Z,5888.00
2023-05-09T08:18:32.589Z,5960.00
2023-05-09T08:19:32.572Z,5148.00
2023-05-09T08:20:32.527Z,5504.00
2023-05-09T08:21:32.538Z,5780.00
2023-05-09T08:22:32.654Z,5536.00
2023-05-09T08:23:32.513Z,5852.00
2023-05-09T08:24:32.548Z,5712.00
2023-05-09T08:25:32.535Z,5708.00
2023-05-09T08:26:32.534Z,5888.00
2023-05-09T08:27:32.551Z,5756.00
2023-05-09T08:28:32.531Z,5780.00
2023-05-09T08:29:32.742Z,4792.00
2023-05-09T08:30:32.639Z,5652.00
2023-05-09T08:31:32.619Z,5408.00
2023-05-09T08:32:32.624Z,5304.00
2023-05-09T08:33:32.550Z,5000.00
2023-05-09T08:34:32.601Z,4180.00
2023-05-09T08:35:32.638Z,4840.00
2023-05-09T08:36:32.617Z,4956.00
2023-05-09T08:37:32.546Z,5016.00
2023-05-09T08:38:32.582Z,4780.00
2023-05-09T08:39:32.554Z,5264.00
2023-05-09T08:40:32.626Z,4136.00
2023-05-09T08:41:32.588Z,4480.00
2023-05-09T08:42:32.974Z,4360.00
2023-05-09T08:43:32.674Z,5280.00
2023-05-09T08:44:32.617Z,5116.00
2023-05-09T08:45:32.579Z,4936.00
2023-05-09T08:46:32.797Z,4780.00
2023-05-09T08:47:32.595Z,4152.00
2023-05-09T08:48:35.249Z,4600.00
2023-05-09T08:49:32.545Z,3884.00
2023-05-09T08:50:32.530Z,3880.00
2023-05-09T08:51:32.545Z,3788.00
2023-05-09T08:52:32.560Z,3720.00
2023-05-09T08:53:32.555Z,3776.00
2023-05-09T08:54:32.536Z,3844.00
2023-05-09T08:55:32.536Z,3836.00
2023-05-09T08:56:32.574Z,3812.00
2023-05-09T08:57:32.561Z,3700.00
2023-05-09T08:58:32.687Z,3384.00
2023-05-09T08:59:32.626Z,3312.00
2023-05-09T09:00:32.582Z,3196.00
2023-05-09T09:04:41.663Z,3644.00
2023-05-09T09:05:42.390Z,3776.00
2023-05-09T09:06:41.349Z,3656.00
2023-05-09T10:13:22.818Z,2784.00
2023-05-09T10:14:22.549Z,2732.00
2023-05-09T10:15:22.521Z,2668.00
2023-05-09T10:16:35.533Z,2724.00
2023-05-09T10:17:22.780Z,3052.00
2023-05-09T10:18:22.726Z,3424.00
2023-05-09T10:19:22.528Z,3696.00
2023-05-09T10:20:22.521Z,3720.00
2023-05-09T10:21:22.671Z,3796.00
2023-05-09T10:22:22.550Z,3812.00
2023-05-09T10:23:23.569Z,3856.00
2023-05-09T10:24:22.541Z,4116.00
2023-05-09T10:25:22.518Z,4228.00
2023-05-09T10:26:22.529Z,4092.00
2023-05-09T10:27:22.619Z,3656.00
2023-05-09T10:28:22.629Z,3296.00
2023-05-09T10:29:22.700Z,3132.00
2023-05-09T10:30:22.785Z,3156.00
2023-05-09T10:31:22.767Z,3292.00
2023-05-09T10:32:22.537Z,3300.00
2023-05-09T10:33:22.579Z,3428.00
2023-05-09T10:34:22.545Z,3676.00
2023-05-09T10:35:22.568Z,3716.00
2023-05-09T10:36:22.556Z,3876.00
2023-05-09T10:37:22.523Z,4412.00
2023-05-09T10:38:22.576Z,4936.00
2023-05-09T10:39:22.483Z,5288.00
2023-05-09T10:40:22.711Z,5228.00
2023-05-09T10:41:22.635Z,5296.00
2023-05-09T10:42:22.525Z,5608.00
2023-05-09T10:43:22.489Z,5400.00
2023-05-09T10:44:22.569Z,4968.00
2023-05-09T10:45:22.689Z,4668.00
2023-05-09T10:46:22.504Z,4676.00
2023-05-09T10:47:22.572Z,4600.00
2023-05-09T10:48:22.498Z,4448.00
2023-05-09T10:49:22.564Z,4268.00
2023-05-09T10:50:22.567Z,4180.00
2023-05-09T10:51:22.494Z,4040.00
2023-05-09T10:52:22.488Z,3840.00
2023-05-09T10:53:22.497Z,3632.00
2023-05-09T10:54:22.510Z,3508.00
2023-05-09T10:55:22.481Z,3412.00
2023-05-09T10:56:22.659Z,3440.00
2023-05-09T10:57:22.525Z,3372.00
2023-05-09T10:58:22.590Z,3320.00
2023-05-09T11:00:22.519Z,3360.00
2023-05-09T11:01:22.718Z,3488.00
2023-05-09T11:02:22.564Z,3588.00
2023-05-09T11:03:22.535Z,3612.00
2023-05-09T11:04:22.495Z,3664.00
2023-05-09T11:05:22.536Z,3792.00
2023-05-09T11:06:22.489Z,3936.00
2023-05-09T11:07:22.686Z,4084.00
2023-05-09T11:08:22.501Z,4236.00
2023-05-09T11:09:23.713Z,4368.00
2023-05-09T11:10:22.553Z,4508.00
2023-05-09T11:11:22.645Z,4680.00
2023-05-09T11:12:22.557Z,4872.00
2023-05-09T11:13:23.347Z,5116.00
2023-05-09T11:14:22.515Z,5360.00
2023-05-09T11:15:22.501Z,5560.00
2023-05-09T11:16:23.879Z,5752.00
2023-05-09T11:17:22.894Z,5960.00
2023-05-09T11:18:22.552Z,5848.00
2023-05-09T11:19:22.540Z,5388.00
2023-05-09T11:20:22.516Z,5196.00
2023-05-09T11:21:22.478Z,5184.00
2023-05-09T11:22:22.503Z,5268.00
2023-05-09T11:23:22.495Z,5332.00
2023-05-09T11:24:22.501Z,5308.00
2023-05-09T11:25:22.536Z,5300.00
2023-05-09T11:26:22.503Z,5404.00
2023-05-09T11:27:22.576Z,5552.00
2023-05-09T11:28:22.557Z,5236.00
2023-05-09T11:29:22.512Z,4760.00
2023-05-09T11:30:22.506Z,4260.00
2023-05-09T11:31:22.551Z,4072.00
2023-05-09T11:32:22.716Z,3916.00
2023-05-09T11:33:22.656Z,3892.00
2023-05-09T11:34:22.568Z,3808.00
2023-05-09T11:35:22.599Z,3752.00
2023-05-09T11:36:22.549Z,3700.00
2023-05-09T11:37:22.513Z,3632.00
2023-05-09T11:38:22.546Z,3456.00
2023-05-09T11:39:24.261Z,3096.00
2023-05-09T11:40:22.605Z,2700.00
2023-05-09T11:41:22.507Z,2536.00
2023-05-09T11:42:22.519Z,2492.00
2023-05-09T11:43:22.500Z,2456.00
2023-05-09T11:44:22.513Z,2464.00
2023-05-09T11:45:22.538Z,2548.00
2023-05-09T11:46:22.610Z,2672.00
2023-05-09T11:47:22.554Z,2820.00
2023-05-09T11:48:22.489Z,2984.00
2023-05-09T11:49:22.602Z,3184.00
2023-05-09T11:50:22.573Z,3428.00
2023-05-09T11:51:22.583Z,3704.00
2023-05-09T11:52:22.521Z,3960.00
2023-05-09T11:53:22.505Z,4220.00
2023-05-09T11:54:22.509Z,4452.00
2023-05-09T11:55:22.692Z,4684.00
2023-05-09T11:56:22.553Z,4900.00
2023-05-09T11:57:22.559Z,5008.00
2023-05-09T11:58:22.528Z,5168.00
2023-05-09T11:59:22.914Z,5336.00
2023-05-09T12:00:22.537Z,5268.00
2023-05-09T12:01:22.521Z,5052.00
2023-05-09T12:02:22.872Z,4876.00
2023-05-09T12:03:22.779Z,4652.00
2023-05-09T12:04:22.689Z,4500.00
2023-05-09T12:05:22.688Z,4468.00
2023-05-09T12:06:22.516Z,4408.00
2023-05-09T12:07:22.561Z,4224.00
2023-05-09T12:08:22.494Z,4048.00
2023-05-09T12:09:22.653Z,3884.00
2023-05-09T12:10:22.605Z,3720.00
2023-05-09T12:11:22.497Z,3476.00
2023-05-09T12:12:22.509Z,3228.00
2023-05-09T12:13:22.596Z,2940.00
2023-05-09T12:14:22.525Z,2648.00
2023-05-09T12:15:22.552Z,2548.00
2023-05-09T12:16:22.546Z,2360.00
2023-05-09T12:17:22.642Z,2288.00
2023-05-09T12:18:22.734Z,2384.00
2023-05-09T12:19:22.532Z,2444.00
2023-05-09T12:20:22.513Z,2368.00
2023-05-09T12:21:22.677Z,2284.00
2023-05-09T12:22:22.573Z,2260.00
2023-05-09T12:23:22.539Z,2308.00
2023-05-09T12:24:22.518Z,2452.00
2023-05-09T12:25:22.520Z,2564.00
2023-05-09T12:26:22.499Z,2448.00
2023-05-09T12:27:22.525Z,2064.00
2023-05-09T12:28:22.519Z,1716.00
2023-05-09T12:29:22.505Z,1568.00
2023-05-09T12:30:22.507Z,1548.00
2023-05-09T12:31:22.595Z,1604.00
2023-05-09T12:32:22.501Z,1636.00
2023-05-09T12:33:22.555Z,1748.00
2023-05-09T12:34:22.550Z,1876.00
2023-05-09T12:35:22.522Z,1964.00
2023-05-09T12:36:22.569Z,1872.00
2023-05-09T12:37:22.687Z,1584.00
2023-05-09T12:38:22.606Z,1236.00
2023-05-09T12:39:22.528Z,992.00
2023-05-09T12:42:55.080Z,912.00
2023-05-09T12:43:55.065Z,948.00
2023-05-09T12:44:55.069Z,976.00
2023-05-09T12:45:55.120Z,908.00
2023-05-09T12:46:55.117Z,788.00
2023-05-09T12:47:55.108Z,660.00
2023-05-09T12:48:55.119Z,580.00
2023-05-09T12:49:55.144Z,484.00
2023-05-09T12:50:55.173Z,380.00
2023-05-09T12:51:55.068Z,312.00
2023-05-09T12:53:02.661Z,288.00
2023-05-09T12:53:55.086Z,284.00
2023-05-09T12:54:55.128Z,300.00
2023-05-09T12:55:55.126Z,340.00
2023-05-09T12:56:55.083Z,396.00
2023-05-09T12:57:55.118Z,456.00
2023-05-09T12:58:55.134Z,520.00
2023-05-09T12:59:55.069Z,596.00
2023-05-09T13:00:55.088Z,688.00
2023-05-09T13:01:55.122Z,804.00
2023-05-09T13:02:55.251Z,948.00
2023-05-09T13:03:55.071Z,1124.00
2023-05-09T13:04:55.181Z,1340.00
2023-05-09T13:05:55.081Z,1524.00
2023-05-09T13:06:55.149Z,1652.00
2023-05-09T13:07:55.100Z,1772.00
2023-05-09T13:08:57.421Z,1860.00
2023-05-09T13:09:55.168Z,1956.00
2023-05-09T13:11:03.882Z,2068.00
2023-05-09T13:11:55.058Z,2168.00
2023-05-09T13:12:55.090Z,2236.00
2023-05-09T13:13:55.104Z,2284.00
2023-05-09T13:14:55.120Z,2360.00
2023-05-09T13:15:55.063Z,2488.00
2023-05-09T13:16:55.080Z,2616.00
2023-05-09T13:17:55.169Z,2872.00
2023-05-09T13:18:55.099Z,3236.00
2023-05-09T13:19:55.078Z,3708.00
2023-05-09T13:20:55.110Z,4332.00
2023-05-09T13:21:55.072Z,5140.00
2023-05-09T13:22:55.047Z,5792.00
2023-05-09T13:23:55.082Z,5876.00
2023-05-09T13:24:55.200Z,4680.00
2023-05-09T13:25:55.092Z,3620.00
2023-05-09T13:26:55.123Z,3188.00
2023-05-09T13:27:55.055Z,3028.00
2023-05-09T13:28:55.237Z,3068.00
2023-05-09T13:29:55.045Z,3504.00
2023-05-09T13:30:55.169Z,2772.00
2023-05-09T13:31:55.065Z,2276.00
2023-05-09T13:32:55.066Z,1952.00
2023-05-09T13:33:55.161Z,1864.00
2023-05-09T13:34:55.055Z,1904.00
2023-05-09T13:35:55.132Z,1948.00
2023-05-09T13:36:55.120Z,1972.00
2023-05-09T13:37:55.035Z,1936.00
2023-05-09T13:38:55.108Z,1888.00
2023-05-09T13:39:55.076Z,1864.00
2023-05-09T13:40:55.169Z,1836.00
2023-05-09T13:41:55.084Z,1828.00
2023-05-09T13:42:55.114Z,1848.00
2023-05-09T13:43:55.124Z,1884.00
2023-05-09T13:44:55.969Z,1912.00
2023-05-09T13:45:55.214Z,1924.00
2023-05-09T13:46:55.143Z,1912.00
2023-05-09T13:47:55.112Z,1908.00
2023-05-09T13:48:55.067Z,1900.00
2023-05-09T13:49:55.065Z,1884.00
2023-05-09T13:50:55.902Z,1856.00
2023-05-09T13:51:55.046Z,1824.00
2023-05-09T13:52:55.062Z,1800.00
2023-05-09T13:53:55.052Z,1804.00
2023-05-09T13:54:55.022Z,1832.00
2023-05-09T13:55:55.037Z,1868.00
2023-05-09T13:56:55.159Z,1924.00
2023-05-09T13:57:55.133Z,2012.00
2023-05-09T13:58:55.020Z,2092.00
2023-05-09T13:59:55.026Z,2144.00
2023-05-09T14:00:55.032Z,2204.00
2023-05-09T14:01:55.067Z,2256.00
2023-05-09T14:02:55.075Z,2260.00
2023-05-09T14:03:55.108Z,2264.00
2023-05-09T14:04:55.013Z,2268.00
2023-05-09T14:05:55.029Z,2200.00
2023-05-09T14:07:16.021Z,2152.00
2023-05-09T14:07:55.032Z,2224.00
2023-05-09T14:08:55.014Z,2248.00
2023-05-09T14:10:04.851Z,2168.00
2023-05-09T14:10:55.040Z,2172.00
2023-05-09T14:11:55.479Z,2208.00
2023-05-09T14:12:55.154Z,2180.00
2023-05-09T14:13:55.029Z,2028.00
2023-05-09T14:14:55.049Z,1840.00
2023-05-09T14:15:55.061Z,1712.00
2023-05-09T14:16:55.023Z,1616.00
2023-05-09T14:17:55.042Z,1560.00
2023-05-09T14:18:55.004Z,1492.00
2023-05-09T14:19:55.029Z,1388.00
2023-05-09T14:20:55.017Z,1252.00
2023-05-09T14:21:55.020Z,1124.00
2023-05-09T14:22:55.026Z,1024.00
2023-05-09T14:23:55.000Z,944.00
2023-05-09T14:24:55.002Z,844.00
2023-05-09T14:25:55.026Z,728.00
2023-05-09T14:26:55.024Z,652.00
2023-05-09T14:27:55.013Z,668.00
2023-05-09T14:28:55.123Z,792.00
2023-05-09T14:29:55.016Z,980.00
2023-05-09T14:30:55.034Z,1132.00
2023-05-09T14:31:55.126Z,1232.00
2023-05-09T14:32:55.008Z,1320.00
2023-05-09T14:33:55.022Z,1384.00
2023-05-09T14:34:55.091Z,1356.00
2023-05-09T14:35:55.031Z,1252.00
2023-05-09T14:36:55.007Z,1100.00
2023-05-09T14:37:55.011Z,956.00
2023-05-09T14:38:55.060Z,828.00
2023-05-09T14:39:55.033Z,708.00
2023-05-09T14:40:55.010Z,632.00
2023-05-09T14:41:55.012Z,596.00
2023-05-09T14:42:54.997Z,540.00
2023-05-09T14:43:55.004Z,476.00
2023-05-09T14:44:55.157Z,420.00
2023-05-09T14:45:55.031Z,384.00
2023-05-09T14:46:55.072Z,360.00
2023-05-09T14:47:55.014Z,356.00
2023-05-09T14:48:54.995Z,368.00
2023-05-09T14:49:55.018Z,376.00
2023-05-09T14:50:55.003Z,376.00
2023-05-09T14:51:55.006Z,376.00
2023-05-09T14:52:54.975Z,380.00
2023-05-09T14:53:54.979Z,400.00
2023-05-09T14:54:54.988Z,392.00
2023-05-09T14:55:54.978Z,368.00
2023-05-09T14:56:55.020Z,352.00
2023-05-09T14:57:55.011Z,324.00
2023-05-09T14:58:54.982Z,316.00
2023-05-09T14:59:56.150Z,336.00
2023-05-09T15:00:55.117Z,380.00
2023-05-09T15:01:54.992Z,404.00
2023-05-09T15:02:55.025Z,416.00
2023-05-09T15:03:54.973Z,408.00
2023-05-09T15:04:54.967Z,404.00
2023-05-09T15:05:54.974Z,404.00
2023-05-09T15:06:55.003Z,396.00
2023-05-09T15:07:54.964Z,396.00
2023-05-09T15:08:54.961Z,416.00
2023-05-09T15:09:54.966Z,440.00
2023-05-09T15:10:54.957Z,452.00
2023-05-09T15:11:55.045Z,504.00
2023-05-09T15:12:55.055Z,532.00
2023-05-09T15:13:54.966Z,556.00
2023-05-09T15:14:54.971Z,576.00
2023-05-09T15:15:54.946Z,604.00
2023-05-09T15:16:55.106Z,664.00
2023-05-09T15:17:54.955Z,724.00
2023-05-09T15:18:54.942Z,804.00
2023-05-09T15:19:54.939Z,932.00
2023-05-09T15:20:54.938Z,1056.00
2023-05-09T15:21:54.958Z,1180.00
2023-05-09T15:22:55.025Z,1264.00
2023-05-09T15:23:54.938Z,1280.00
2023-05-09T15:24:54.960Z,1272.00
2023-05-09T15:25:54.945Z,1264.00
2023-05-09T15:26:54.985Z,1276.00
2023-05-09T15:27:54.942Z,1380.00
2023-05-09T15:28:54.957Z,1508.00
2023-05-09T15:29:54.933Z,1592.00
2023-05-09T15:30:54.950Z,1656.00
2023-05-09T15:31:54.923Z,1736.00
2023-05-09T15:32:55.087Z,1804.00
2023-05-09T15:33:54.944Z,1824.00
2023-05-09T15:34:54.960Z,1808.00
2023-05-09T15:35:54.918Z,1776.00
2023-05-09T15:36:54.915Z,1764.00
2023-05-09T15:37:54.942Z,1756.00
2023-05-09T15:38:54.910Z,1752.00
2023-05-09T15:39:54.931Z,1756.00
2023-05-09T15:40:54.927Z,1736.00
2023-05-09T15:41:54.912Z,1696.00
2023-05-09T15:42:54.914Z,1660.00
2023-05-09T15:43:54.912Z,1624.00
2023-05-09T15:44:54.914Z,1592.00
2023-05-09T15:45:54.935Z,1568.00
2023-05-09T15:46:54.904Z,1568.00
2023-05-09T15:47:54.937Z,1588.00
2023-05-09T15:48:56.192Z,1616.00
2023-05-09T15:49:54.902Z,1640.00
2023-05-09T15:50:54.889Z,1644.00
2023-05-09T15:51:54.913Z,1636.00
2023-05-09T15:52:54.915Z,1616.00
2023-05-09T15:53:54.890Z,1564.00
2023-05-09T15:54:54.911Z,1476.00
2023-05-09T15:55:54.921Z,1372.00
2023-05-09T15:56:54.889Z,1240.00
2023-05-09T15:57:54.895Z,1112.00
2023-05-09T15:58:54.916Z,1020.00
2023-05-09T15:59:54.902Z,932.00
2023-05-09T16:00:54.899Z,872.00
2023-05-09T16:12:35.780Z,1220.00
2023-05-09T16:13:36.055Z,1236.00
2023-05-09T16:14:35.714Z,1280.00
2023-05-09T16:15:35.644Z,1320.00
2023-05-09T16:16:35.731Z,1356.00
2023-05-09T16:17:35.612Z,1384.00
2023-05-09T16:18:35.619Z,1364.00
2023-05-09T16:19:36.040Z,1316.00
2023-05-09T16:20:35.602Z,1224.00
2023-05-09T16:21:35.637Z,1160.00
2023-05-09T16:22:35.606Z,1140.00
2023-05-09T16:23:35.614Z,1108.00
2023-05-09T16:24:35.603Z,1056.00
2023-05-09T16:25:35.676Z,980.00
2023-05-09T16:26:35.638Z,904.00
2023-05-09T16:27:35.613Z,832.00
2023-05-09T16:28:35.693Z,804.00
2023-05-09T16:29:35.597Z,792.00
2023-05-09T16:30:35.594Z,796.00
2023-05-09T16:31:35.929Z,832.00
2023-05-09T16:32:35.589Z,880.00
2023-05-09T16:33:35.586Z,896.00
2023-05-09T16:34:35.575Z,908.00
2023-05-09T16:35:35.585Z,932.00
2023-05-09T16:36:35.603Z,960.00
2023-05-09T16:37:35.853Z,960.00
2023-05-09T16:38:35.619Z,924.00
2023-05-09T16:39:35.577Z,864.00
2023-05-09T16:40:35.565Z,832.00
2023-05-09T16:41:35.624Z,772.00
2023-05-09T16:42:35.605Z,704.00
2023-05-09T16:43:35.560Z,684.00
2023-05-09T16:44:35.673Z,740.00
2023-05-09T16:45:35.592Z,748.00
2023-05-09T16:46:35.548Z,736.00
2023-05-09T16:47:35.564Z,732.00
2023-05-09T16:48:35.556Z,744.00
2023-05-09T16:49:35.538Z,760.00
2023-05-09T16:50:35.544Z,780.00
2023-05-09T16:51:35.544Z,788.00
2023-05-09T16:52:35.544Z,784.00
2023-05-09T16:53:35.540Z,756.00
2023-05-09T16:54:35.539Z,720.00
2023-05-09T16:55:35.846Z,696.00
2023-05-09T16:56:35.540Z,688.00
2023-05-09T16:57:35.533Z,684.00
2023-05-09T16:58:36.786Z,664.00
2023-05-09T16:59:35.546Z,620.00
2023-05-09T17:00:35.647Z,544.00
2023-05-09T17:01:35.662Z,456.00
2023-05-09T17:02:35.606Z,388.00
2023-05-09T17:03:35.509Z,360.00
2023-05-09T17:04:37.776Z,336.00
2023-05-09T17:05:35.514Z,276.00
2023-05-09T17:06:35.505Z,240.00
2023-05-09T17:07:35.524Z,212.00
2023-05-09T17:08:35.510Z,192.00
2023-05-09T17:09:35.498Z,164.00
2023-05-09T17:10:37.446Z,132.00
2023-05-09T17:11:35.507Z,128.00
2023-05-09T17:12:35.506Z,136.00
2023-05-09T17:13:35.519Z,116.00
2023-05-09T17:14:35.497Z,88.00
2023-05-09T17:15:35.509Z,108.00
2023-05-09T17:16:37.958Z,128.00
2023-05-09T17:17:35.509Z,136.00
2023-05-09T17:18:38.027Z,156.00
2023-05-09T17:19:35.488Z,188.00
2023-05-09T17:20:35.488Z,224.00
2023-05-09T17:21:35.477Z,280.00
2023-05-09T17:22:37.143Z,344.00
2023-05-09T17:23:35.480Z,348.00
2023-05-09T17:24:35.487Z,316.00
2023-05-09T17:25:35.488Z,304.00
2023-05-09T17:26:35.475Z,232.00
2023-05-09T17:27:35.467Z,212.00
2023-05-09T17:28:35.493Z,248.00
2023-05-09T17:29:35.477Z,304.00
2023-05-09T17:30:35.459Z,368.00
2023-05-09T17:31:35.535Z,432.00
2023-05-09T17:32:35.584Z,444.00
2023-05-09T17:33:35.470Z,424.00
2023-05-09T17:34:35.451Z,392.00
2023-05-09T17:35:35.463Z,368.00
2023-05-09T17:36:35.515Z,352.00
2023-05-09T17:37:35.468Z,348.00
2023-05-09T17:38:35.445Z,348.00
2023-05-09T17:39:35.445Z,344.00
2023-05-09T17:40:35.438Z,332.00